sensor_id;sensor_type;location;lat;lon;timestamp;pressure;altitude;pressure_sealevel;temperature;humidity
16834;BME280;8533;48.426;10.868;2023-02-20T00:00:25;97163.00;;;7.09;100.00
16834;BME280;8533;48.426;10.868;2023-02-20T00:02:53;97170.31;;;7.09;100.00
16834;BME280;8533;48.426;10.868;2023-02-20T00:05:21;97167.40;;;7.08;100.00
16834;BME280;8533;48.426;10.868;2023-02-20T00:07:49;97165.98;;;7.06;100.00
16834;BME280;8533;48.426;10.868;2023-02-20T00:10:17;97175.09;;;7.06;100.00
16834;BME280;8533;48.426;10.868;2023-02-20T00:12:45;97170.91;;;7.05;100.00
16834;BME280;8533;48.426;10.868;2023-02-20T00:15:15;97173.79;;;7.06;100.00
16834;BME280;8533;48.426;10.868;2023-02-20T00:17:45;97172.30;;;7.07;100.00
16834;BME280;8533;48.426;10.868;2023-02-20T00:20:20;97166.10;;;7.08;100.00
16834;BME280;8533;48.426;10.868;2023-02-20T00:22:48;97160.28;;;7.06;100.00
16834;BME280;8533;48.426;10.868;2023-02-20T00:25:17;97167.81;;;7.05;100.00
16834;BME280;8533;48.426;10.868;2023-02-20T00:27:45;97154.50;;;7.04;100.00
16834;BME280;8533;48.426;10.868;2023-02-20T00:30:21;97156.19;;;7.08;100.00
16834;BME280;8533;48.426;10.868;2023-02-20T00:32:45;97157.69;;;7.06;100.00
16834;BME280;8533;48.426;10.868;2023-02-20T00:35:14;97154.81;;;7.05;100.00
16834;BME280;8533;48.426;10.868;2023-02-20T00:37:42;97150.30;;;7.03;100.00
16834;BME280;8533;48.426;10.868;2023-02-20T00:40:10;97151.48;;;7.01;100.00
16834;BME280;8533;48.426;10.868;2023-02-20T00:42:38;97155.69;;;7.02;100.00
16834;BME280;8533;48.426;10.868;2023-02-20T00:45:06;97162.38;;;7.00;100.00
16834;BME280;8533;48.426;10.868;2023-02-20T00:47:33;97162.38;;;7.00;100.00
16834;BME280;8533;48.426;10.868;2023-02-20T00:50:01;97157.98;;;7.01;100.00
16834;BME280;8533;48.426;10.868;2023-02-20T00:52:28;97162.69;;;7.01;100.00
16834;BME280;8533;48.426;10.868;2023-02-20T00:54:56;97162.69;;;7.01;100.00
16834;BME280;8533;48.426;10.868;2023-02-20T00:57:23;97173.09;;;7.01;100.00
16834;BME280;8533;48.426;10.868;2023-02-20T00:59:50;97171.79;;;7.01;100.00
16834;BME280;8533;48.426;10.868;2023-02-20T01:02:18;97176.80;;;7.03;100.00
16834;BME280;8533;48.426;10.868;2023-02-20T01:04:46;97174.08;;;7.00;100.00
16834;BME280;8533;48.426;10.868;2023-02-20T01:07:13;97177.80;;;7.02;100.00
16834;BME280;8533;48.426;10.868;2023-02-20T01:09:41;97169.69;;;7.01;100.00
16834;BME280;8533;48.426;10.868;2023-02-20T01:12:09;97165.98;;;6.99;100.00
16834;BME280;8533;48.426;10.868;2023-02-20T01:14:37;97170.19;;;7.00;100.00
16834;BME280;8533;48.426;10.868;2023-02-20T01:17:04;97169.38;;;7.00;100.00
16834;BME280;8533;48.426;10.868;2023-02-20T01:19:32;97171.30;;;7.02;100.00
16834;BME280;8533;48.426;10.868;2023-02-20T01:21:59;97173.69;;;6.97;100.00
16834;BME280;8533;48.426;10.868;2023-02-20T01:24:28;97173.39;;;6.96;100.00
16834;BME280;8533;48.426;10.868;2023-02-20T01:26:55;97178.47;;;6.93;100.00
16834;BME280;8533;48.426;10.868;2023-02-20T01:29:23;97174.45;;;6.90;100.00
16834;BME280;8533;48.426;10.868;2023-02-20T01:31:51;97173.37;;;6.89;100.00
16834;BME280;8533;48.426;10.868;2023-02-20T01:34:20;97172.77;;;6.87;100.00
16834;BME280;8533;48.426;10.868;2023-02-20T01:36:49;97160.45;;;6.85;100.00
16834;BME280;8533;48.426;10.868;2023-02-20T01:39:23;97155.93;;;6.83;100.00
16834;BME280;8533;48.426;10.868;2023-02-20T01:41:56;97151.23;;;6.82;100.00
16834;BME280;8533;48.426;10.868;2023-02-20T01:44:27;97144.72;;;6.82;100.00
16834;BME280;8533;48.426;10.868;2023-02-20T01:46:57;97141.13;;;6.83;100.00
16834;BME280;8533;48.426;10.868;2023-02-20T01:49:33;97141.94;;;6.84;100.00
16834;BME280;8533;48.426;10.868;2023-02-20T01:52:46;97139.52;;;6.82;100.00
16834;BME280;8533;48.426;10.868;2023-02-20T01:54:30;97142.84;;;6.80;100.00
16834;BME280;8533;48.426;10.868;2023-02-20T01:57:00;97147.82;;;6.82;100.00
16834;BME280;8533;48.426;10.868;2023-02-20T01:59:31;97148.32;;;6.81;100.00
16834;BME280;8533;48.426;10.868;2023-02-20T02:01:59;97151.64;;;6.79;100.00
16834;BME280;8533;48.426;10.868;2023-02-20T02:04:27;97146.52;;;6.82;100.00
16834;BME280;8533;48.426;10.868;2023-02-20T02:06:56;97141.44;;;6.84;100.00
16834;BME280;8533;48.426;10.868;2023-02-20T02:12:15;97155.05;;;6.80;100.00
16834;BME280;8533;48.426;10.868;2023-02-20T02:14:42;97146.52;;;6.82;100.00
16834;BME280;8533;48.426;10.868;2023-02-20T02:17:17;97146.74;;;6.80;100.00
16834;BME280;8533;48.426;10.868;2023-02-20T02:31:24;97110.34;;;6.80;100.00
16834;BME280;8533;48.426;10.868;2023-02-20T02:44:45;97119.22;;;6.82;100.00
16834;BME280;8533;48.426;10.868;2023-02-20T02:50:04;97112.45;;;6.81;100.00
16834;BME280;8533;48.426;10.868;2023-02-20T02:52:29;97105.52;;;6.77;100.00
16834;BME280;8533;48.426;10.868;2023-02-20T02:55:21;97112.71;;;6.75;100.00
16834;BME280;8533;48.426;10.868;2023-02-20T02:57:48;97122.72;;;6.72;100.00
16834;BME280;8533;48.426;10.868;2023-02-20T03:00:23;97120.19;;;6.68;100.00
16834;BME280;8533;48.426;10.868;2023-02-20T03:02:56;97121.59;;;6.64;100.00
16834;BME280;8533;48.426;10.868;2023-02-20T03:05:23;97124.27;;;6.60;100.00
16834;BME280;8533;48.426;10.868;2023-02-20T03:07:53;97128.05;;;6.57;100.00
16834;BME280;8533;48.426;10.868;2023-02-20T03:10:23;97119.36;;;6.54;100.00
16834;BME280;8533;48.426;10.868;2023-02-20T03:12:53;97119.23;;;6.51;100.00
16834;BME280;8533;48.426;10.868;2023-02-20T03:15:25;97114.14;;;6.47;100.00
16834;BME280;8533;48.426;10.868;2023-02-20T03:17:59;97116.12;;;6.45;100.00
16834;BME280;8533;48.426;10.868;2023-02-20T03:20:26;97116.50;;;6.42;100.00
16834;BME280;8533;48.426;10.868;2023-02-20T03:22:58;97108.12;;;6.40;100.00
16834;BME280;8533;48.426;10.868;2023-02-20T03:25:39;97117.91;;;6.38;100.00
16834;BME280;8533;48.426;10.868;2023-02-20T03:28:23;97109.19;;;6.35;100.00
16834;BME280;8533;48.426;10.868;2023-02-20T03:30:55;97104.89;;;6.32;100.00
16834;BME280;8533;48.426;10.868;2023-02-20T03:33:32;97101.06;;;6.28;100.00
16834;BME280;8533;48.426;10.868;2023-02-20T03:36:15;97102.24;;;6.25;100.00
16834;BME280;8533;48.426;10.868;2023-02-20T03:39:05;97102.34;;;6.21;100.00
16834;BME280;8533;48.426;10.868;2023-02-20T03:41:52;97108.72;;;6.19;100.00
16834;BME280;8533;48.426;10.868;2023-02-20T03:44:38;97112.39;;;6.13;100.00
16834;BME280;8533;48.426;10.868;2023-02-20T03:47:07;97107.27;;;6.09;100.00
16834;BME280;8533;48.426;10.868;2023-02-20T03:49:38;97102.05;;;6.03;100.00
16834;BME280;8533;48.426;10.868;2023-02-20T03:52:07;97109.63;;;5.98;100.00
16834;BME280;8533;48.426;10.868;2023-02-20T03:54:36;97108.38;;;5.94;100.00
16834;BME280;8533;48.426;10.868;2023-02-20T03:57:12;97109.59;;;5.91;100.00
16834;BME280;8533;48.426;10.868;2023-02-20T03:59:41;97118.40;;;5.86;100.00
16834;BME280;8533;48.426;10.868;2023-02-20T04:02:16;97116.48;;;5.84;100.00
16834;BME280;8533;48.426;10.868;2023-02-20T04:04:45;97116.88;;;5.81;100.00
16834;BME280;8533;48.426;10.868;2023-02-20T04:07:15;97115.86;;;5.75;100.00
16834;BME280;8533;48.426;10.868;2023-02-20T04:09:45;97118.95;;;5.75;100.00
16834;BME280;8533;48.426;10.868;2023-02-20T04:12:24;97114.62;;;5.71;100.00
16834;BME280;8533;48.426;10.868;2023-02-20T04:14:52;97114.98;;;5.68;100.00
16834;BME280;8533;48.426;10.868;2023-02-20T04:17:29;97116.38;;;5.64;100.00
16834;BME280;8533;48.426;10.868;2023-02-20T04:19:56;97107.16;;;5.62;100.00
16834;BME280;8533;48.426;10.868;2023-02-20T04:22:26;97114.54;;;5.58;100.00
16834;BME280;8533;48.426;10.868;2023-02-20T04:27:30;97115.58;;;5.53;100.00
16834;BME280;8533;48.426;10.868;2023-02-20T04:29:58;97111.77;;;5.49;100.00
16834;BME280;8533;48.426;10.868;2023-02-20T04:32:25;97109.73;;;5.45;100.00
16834;BME280;8533;48.426;10.868;2023-02-20T04:34:52;97116.92;;;5.43;100.00
16834;BME280;8533;48.426;10.868;2023-02-20T04:37:20;97110.44;;;5.43;100.00
16834;BME280;8533;48.426;10.868;2023-02-20T04:39:47;97116.48;;;5.39;100.00
16834;BME280;8533;48.426;10.868;2023-02-20T04:42:15;97116.04;;;5.35;100.00
16834;BME280;8533;48.426;10.868;2023-02-20T04:44:42;97118.22;;;5.32;100.00
16834;BME280;8533;48.426;10.868;2023-02-20T04:47:15;97121.36;;;5.27;100.00
16834;BME280;8533;48.426;10.868;2023-02-20T04:49:44;97115.77;;;5.24;100.00
16834;BME280;8533;48.426;10.868;2023-02-20T04:52:11;97117.73;;;5.22;100.00
16834;BME280;8533;48.426;10.868;2023-02-20T04:54:39;97119.91;;;5.18;100.00
16834;BME280;8533;48.426;10.868;2023-02-20T04:57:06;97128.05;;;5.15;100.00
16834;BME280;8533;48.426;10.868;2023-02-20T04:59:33;97123.12;;;5.10;100.00
16834;BME280;8533;48.426;10.868;2023-02-20T05:02:01;97126.87;;;5.07;100.00
16834;BME280;8533;48.426;10.868;2023-02-20T05:04:28;97124.34;;;5.03;100.00
16834;BME280;8533;48.426;10.868;2023-02-20T05:06:57;97123.43;;;5.00;100.00
16834;BME280;8533;48.426;10.868;2023-02-20T05:09:25;97129.59;;;4.99;100.00
16834;BME280;8533;48.426;10.868;2023-02-20T05:11:53;97126.87;;;4.96;100.00
16834;BME280;8533;48.426;10.868;2023-02-20T05:14:21;97128.24;;;4.92;100.00
16834;BME280;8533;48.426;10.868;2023-02-20T05:16:49;97130.21;;;4.90;100.00
16834;BME280;8533;48.426;10.868;2023-02-20T05:19:17;97133.78;;;4.89;100.00
16834;BME280;8533;48.426;10.868;2023-02-20T05:21:45;97136.06;;;4.88;100.00
16834;BME280;8533;48.426;10.868;2023-02-20T05:24:31;97136.77;;;4.86;100.00
16834;BME280;8533;48.426;10.868;2023-02-20T05:26:58;97139.84;;;4.86;100.00
16834;BME280;8533;48.426;10.868;2023-02-20T05:29:26;97142.48;;;4.82;100.00
16834;BME280;8533;48.426;10.868;2023-02-20T05:31:53;97146.68;;;4.83;100.00
16834;BME280;8533;48.426;10.868;2023-02-20T05:34:21;97151.73;;;4.80;100.00
16834;BME280;8533;48.426;10.868;2023-02-20T05:36:50;97154.81;;;4.80;100.00
16834;BME280;8533;48.426;10.868;2023-02-20T05:39:18;97159.89;;;4.77;100.00
16834;BME280;8533;48.426;10.868;2023-02-20T05:41:45;97158.63;;;4.73;100.00
16834;BME280;8533;48.426;10.868;2023-02-20T05:44:14;97160.80;;;4.70;100.00
16834;BME280;8533;48.426;10.868;2023-02-20T05:46:42;97162.27;;;4.68;100.00
16834;BME280;8533;48.426;10.868;2023-02-20T05:49:09;97156.78;;;4.67;100.00
16834;BME280;8533;48.426;10.868;2023-02-20T05:51:37;97158.56;;;4.67;100.00
16834;BME280;8533;48.426;10.868;2023-02-20T05:54:05;97162.62;;;4.65;100.00
16834;BME280;8533;48.426;10.868;2023-02-20T05:56:32;97159.72;;;4.64;100.00
16834;BME280;8533;48.426;10.868;2023-02-20T05:59:02;97151.84;;;4.62;100.00
16834;BME280;8533;48.426;10.868;2023-02-20T06:01:30;97154.61;;;4.60;100.00
16834;BME280;8533;48.426;10.868;2023-02-20T06:03:58;97148.48;;;4.57;100.00
16834;BME280;8533;48.426;10.868;2023-02-20T06:06:34;97160.45;;;4.58;100.00
16834;BME280;8533;48.426;10.868;2023-02-20T06:09:03;97157.94;;;4.54;100.00
16834;BME280;8533;48.426;10.868;2023-02-20T06:11:33;97168.47;;;4.52;100.00
16834;BME280;8533;48.426;10.868;2023-02-20T06:14:01;97167.03;;;4.50;100.00
16834;BME280;8533;48.426;10.868;2023-02-20T06:16:29;97170.61;;;4.49;100.00
16834;BME280;8533;48.426;10.868;2023-02-20T06:18:57;97177.08;;;4.49;100.00
16834;BME280;8533;48.426;10.868;2023-02-20T06:21:27;97170.78;;;4.47;100.00
16834;BME280;8533;48.426;10.868;2023-02-20T06:23:55;97166.72;;;4.49;100.00
16834;BME280;8533;48.426;10.868;2023-02-20T06:26:23;97167.03;;;4.50;100.00
16834;BME280;8533;48.426;10.868;2023-02-20T06:28:51;97175.96;;;4.47;100.00
16834;BME280;8533;48.426;10.868;2023-02-20T06:31:24;97171.97;;;4.45;100.00
16834;BME280;8533;48.426;10.868;2023-02-20T06:33:52;97175.05;;;4.44;100.00
16834;BME280;8533;48.426;10.868;2023-02-20T06:36:26;97169.41;;;4.41;100.00
16834;BME280;8533;48.426;10.868;2023-02-20T06:38:54;97172.17;;;4.39;100.00
16834;BME280;8533;48.426;10.868;2023-02-20T06:41:21;97173.47;;;4.39;100.00
16834;BME280;8533;48.426;10.868;2023-02-20T06:43:49;97170.08;;;4.39;100.00
16834;BME280;8533;48.426;10.868;2023-02-20T06:46:16;97175.89;;;4.41;100.00
16834;BME280;8533;48.426;10.868;2023-02-20T06:48:49;97175.57;;;4.40;100.00
16834;BME280;8533;48.426;10.868;2023-02-20T06:51:25;97185.92;;;4.40;100.00
16834;BME280;8533;48.426;10.868;2023-02-20T06:53:52;97188.48;;;4.44;100.00
16834;BME280;8533;48.426;10.868;2023-02-20T06:56:26;97191.81;;;4.48;100.00
16834;BME280;8533;48.426;10.868;2023-02-20T06:58:51;97188.22;;;4.53;100.00
16834;BME280;8533;48.426;10.868;2023-02-20T07:01:21;97195.43;;;4.58;100.00
16834;BME280;8533;48.426;10.868;2023-02-20T07:03:50;97199.28;;;4.62;100.00
16834;BME280;8533;48.426;10.868;2023-02-20T07:06:18;97202.47;;;4.64;100.00
16834;BME280;8533;48.426;10.868;2023-02-20T07:08:46;97197.25;;;4.68;100.00
16834;BME280;8533;48.426;10.868;2023-02-20T07:11:15;97189.48;;;4.68;100.00
16834;BME280;8533;48.426;10.868;2023-02-20T07:13:43;97208.53;;;4.71;100.00
16834;BME280;8533;48.426;10.868;2023-02-20T07:16:10;97206.22;;;4.76;100.00
16834;BME280;8533;48.426;10.868;2023-02-20T07:18:38;97200.66;;;4.79;100.00
16834;BME280;8533;48.426;10.868;2023-02-20T07:21:06;97206.22;;;4.87;100.00
16834;BME280;8533;48.426;10.868;2023-02-20T07:23:33;97200.20;;;4.90;100.00
16834;BME280;8533;48.426;10.868;2023-02-20T07:26:00;97190.97;;;5.03;100.00
16834;BME280;8533;48.426;10.868;2023-02-20T07:28:28;97183.74;;;5.09;100.00
16834;BME280;8533;48.426;10.868;2023-02-20T07:30:55;97181.84;;;5.17;100.00
16834;BME280;8533;48.426;10.868;2023-02-20T07:33:23;97178.67;;;5.22;100.00
16834;BME280;8533;48.426;10.868;2023-02-20T07:35:50;97182.13;;;5.29;100.00
16834;BME280;8533;48.426;10.868;2023-02-20T07:38:17;97173.98;;;5.32;100.00
16834;BME280;8533;48.426;10.868;2023-02-20T07:40:45;97186.16;;;5.31;100.00
16834;BME280;8533;48.426;10.868;2023-02-20T07:43:12;97182.70;;;5.35;100.00
16834;BME280;8533;48.426;10.868;2023-02-20T07:45:40;97179.55;;;5.40;100.00
16834;BME280;8533;48.426;10.868;2023-02-20T07:48:07;97175.03;;;5.48;100.00
16834;BME280;8533;48.426;10.868;2023-02-20T07:50:35;97179.95;;;5.54;100.00
16834;BME280;8533;48.426;10.868;2023-02-20T07:53:02;97188.00;;;5.59;100.00
16834;BME280;8533;48.426;10.868;2023-02-20T07:55:30;97180.58;;;5.66;100.00
16834;BME280;8533;48.426;10.868;2023-02-20T07:57:58;97168.13;;;5.72;100.00
16834;BME280;8533;48.426;10.868;2023-02-20T08:00:26;97169.29;;;5.81;100.00
16834;BME280;8533;48.426;10.868;2023-02-20T08:02:54;97169.80;;;5.91;100.00
16834;BME280;8533;48.426;10.868;2023-02-20T08:05:22;97176.23;;;6.01;100.00
16834;BME280;8533;48.426;10.868;2023-02-20T08:07:50;97175.28;;;6.09;100.00
16834;BME280;8533;48.426;10.868;2023-02-20T08:10:20;97176.37;;;6.21;100.00
16834;BME280;8533;48.426;10.868;2023-02-20T08:12:48;97166.81;;;6.28;100.00
16834;BME280;8533;48.426;10.868;2023-02-20T08:15:18;97156.57;;;6.37;100.00
16834;BME280;8533;48.426;10.868;2023-02-20T08:17:45;97158.32;;;6.47;100.00
16834;BME280;8533;48.426;10.868;2023-02-20T08:20:15;97159.23;;;6.57;100.00
16834;BME280;8533;48.426;10.868;2023-02-20T08:22:44;97150.89;;;6.68;100.00
16834;BME280;8533;48.426;10.868;2023-02-20T08:25:12;97140.81;;;6.76;100.00
16834;BME280;8533;48.426;10.868;2023-02-20T08:27:45;97143.42;;;6.82;100.00
16834;BME280;8533;48.426;10.868;2023-02-20T08:30:19;97140.95;;;6.92;100.00
16834;BME280;8533;48.426;10.868;2023-02-20T08:32:48;97133.47;;;6.99;100.00
16834;BME280;8533;48.426;10.868;2023-02-20T08:35:15;97138.78;;;7.08;100.00
16834;BME280;8533;48.426;10.868;2023-02-20T08:37:44;97131.70;;;7.19;100.00
16834;BME280;8533;48.426;10.868;2023-02-20T08:40:12;97127.00;;;7.25;100.00
16834;BME280;8533;48.426;10.868;2023-02-20T08:42:40;97129.52;;;7.36;100.00
16834;BME280;8533;48.426;10.868;2023-02-20T08:45:07;97121.09;;;7.47;100.00
16834;BME280;8533;48.426;10.868;2023-02-20T08:47:35;97119.30;;;7.61;100.00
16834;BME280;8533;48.426;10.868;2023-02-20T08:50:03;97108.87;;;7.74;99.58
16834;BME280;8533;48.426;10.868;2023-02-20T08:52:30;97109.13;;;7.88;97.78
16834;BME280;8533;48.426;10.868;2023-02-20T08:54:58;97122.02;;;8.05;97.53
16834;BME280;8533;48.426;10.868;2023-02-20T08:57:25;97118.30;;;8.17;96.28
16834;BME280;8533;48.426;10.868;2023-02-20T08:59:53;97114.44;;;8.39;94.60
16834;BME280;8533;48.426;10.868;2023-02-20T09:02:23;97103.13;;;8.59;93.18
16834;BME280;8533;48.426;10.868;2023-02-20T09:04:52;97100.05;;;8.68;90.02
16834;BME280;8533;48.426;10.868;2023-02-20T09:07:20;97105.52;;;8.83;89.80
16834;BME280;8533;48.426;10.868;2023-02-20T09:09:47;97093.63;;;8.87;89.18
16834;BME280;8533;48.426;10.868;2023-02-20T09:12:16;97088.87;;;8.93;88.15
16834;BME280;8533;48.426;10.868;2023-02-20T09:14:44;97087.95;;;9.12;87.29
16834;BME280;8533;48.426;10.868;2023-02-20T09:17:12;97075.80;;;9.15;87.07
16834;BME280;8533;48.426;10.868;2023-02-20T09:19:39;97071.94;;;9.17;85.63
16834;BME280;8533;48.426;10.868;2023-02-20T09:22:07;97090.37;;;9.38;85.69
16834;BME280;8533;48.426;10.868;2023-02-20T09:24:34;97095.05;;;9.30;83.75
16834;BME280;8533;48.426;10.868;2023-02-20T09:27:02;97100.06;;;9.56;83.17
16834;BME280;8533;48.426;10.868;2023-02-20T09:29:32;97099.97;;;9.87;80.42
16834;BME280;8533;48.426;10.868;2023-02-20T09:32:01;97099.91;;;10.12;80.16
16834;BME280;8533;48.426;10.868;2023-02-20T09:34:29;97093.29;;;10.46;77.75
16834;BME280;8533;48.426;10.868;2023-02-20T09:36:56;97097.14;;;10.62;76.93
16834;BME280;8533;48.426;10.868;2023-02-20T09:39:24;97077.47;;;10.71;75.15
16834;BME280;8533;48.426;10.868;2023-02-20T09:42:02;97074.72;;;10.75;74.84
16834;BME280;8533;48.426;10.868;2023-02-20T09:44:50;97068.68;;;10.75;72.86
16834;BME280;8533;48.426;10.868;2023-02-20T09:47:23;97066.36;;;10.76;72.46
16834;BME280;8533;48.426;10.868;2023-02-20T09:49:43;97052.73;;;10.85;71.53
16834;BME280;8533;48.426;10.868;2023-02-20T09:52:12;97057.33;;;11.01;72.84
16834;BME280;8533;48.426;10.868;2023-02-20T09:54:49;97045.10;;;10.84;69.62
16834;BME280;8533;48.426;10.868;2023-02-20T09:57:18;97039.97;;;10.77;69.54
16834;BME280;8533;48.426;10.868;2023-02-20T09:59:48;97033.38;;;10.45;69.09
16834;BME280;8533;48.426;10.868;2023-02-20T10:05:00;97041.33;;;10.20;71.92
16834;BME280;8533;48.426;10.868;2023-02-20T10:07:25;97041.54;;;10.27;71.58
16834;BME280;8533;48.426;10.868;2023-02-20T10:09:54;97040.91;;;10.53;72.20
16834;BME280;8533;48.426;10.868;2023-02-20T10:15:41;97029.06;;;11.24;69.18
16834;BME280;8533;48.426;10.868;2023-02-20T10:18:19;97029.02;;;11.33;68.36
16834;BME280;8533;48.426;10.868;2023-02-20T10:20:53;97017.61;;;11.86;67.09
16834;BME280;8533;48.426;10.868;2023-02-20T10:25:55;97015.87;;;11.42;67.09
16834;BME280;8533;48.426;10.868;2023-02-20T10:28:24;97021.95;;;11.11;67.53
16834;BME280;8533;48.426;10.868;2023-02-20T10:33:37;97018.17;;;11.06;69.53
16834;BME280;8533;48.426;10.868;2023-02-20T10:36:15;97016.06;;;10.94;70.07
16834;BME280;8533;48.426;10.868;2023-02-20T10:38:49;97013.22;;;11.07;70.13
16834;BME280;8533;48.426;10.868;2023-02-20T10:41:30;97008.38;;;11.14;69.29
16834;BME280;8533;48.426;10.868;2023-02-20T10:44:08;96992.96;;;11.15;67.88
16834;BME280;8533;48.426;10.868;2023-02-20T10:46:44;96989.91;;;11.18;66.87
16834;BME280;8533;48.426;10.868;2023-02-20T10:49:10;96986.08;;;11.23;66.77
16834;BME280;8533;48.426;10.868;2023-02-20T10:51:43;96988.08;;;11.18;66.62
16834;BME280;8533;48.426;10.868;2023-02-20T10:54:23;96986.02;;;11.32;66.93
16834;BME280;8533;48.426;10.868;2023-02-20T10:59:32;96982.71;;;11.48;63.14
16834;BME280;8533;48.426;10.868;2023-02-20T11:01:59;96974.05;;;11.59;62.44
16834;BME280;8533;48.426;10.868;2023-02-20T11:04:32;96973.16;;;11.68;61.62
16834;BME280;8533;48.426;10.868;2023-02-20T11:07:03;96971.93;;;11.82;61.50
16834;BME280;8533;48.426;10.868;2023-02-20T11:09:30;96966.63;;;11.94;61.30
16834;BME280;8533;48.426;10.868;2023-02-20T11:11:58;96957.49;;;12.08;60.78
16834;BME280;8533;48.426;10.868;2023-02-20T11:14:39;96947.77;;;12.08;61.58
16834;BME280;8533;48.426;10.868;2023-02-20T11:17:05;96953.59;;;11.96;61.51
16834;BME280;8533;48.426;10.868;2023-02-20T11:19:46;96951.67;;;12.06;61.90
16834;BME280;8533;48.426;10.868;2023-02-20T11:22:14;96950.51;;;12.13;59.73
16834;BME280;8533;48.426;10.868;2023-02-20T11:24:43;96946.86;;;12.14;58.80
16834;BME280;8533;48.426;10.868;2023-02-20T11:27:22;96939.41;;;12.23;58.89
16834;BME280;8533;48.426;10.868;2023-02-20T11:29:51;96937.62;;;12.40;59.80
16834;BME280;8533;48.426;10.868;2023-02-20T11:32:34;96944.33;;;12.50;59.21
16834;BME280;8533;48.426;10.868;2023-02-20T11:37:51;96928.58;;;12.65;57.81
16834;BME280;8533;48.426;10.868;2023-02-20T11:40:20;96920.54;;;12.71;57.41
16834;BME280;8533;48.426;10.868;2023-02-20T11:42:45;96915.97;;;12.64;57.61
16834;BME280;8533;48.426;10.868;2023-02-20T11:45:15;96915.70;;;12.66;57.75
16834;BME280;8533;48.426;10.868;2023-02-20T11:47:44;96906.50;;;12.80;58.20
16834;BME280;8533;48.426;10.868;2023-02-20T11:50:18;96896.34;;;12.86;57.37
16834;BME280;8533;48.426;10.868;2023-02-20T11:53:01;96903.88;;;12.99;57.80
16834;BME280;8533;48.426;10.868;2023-02-20T11:55:27;96900.73;;;12.99;56.89
16834;BME280;8533;48.426;10.868;2023-02-20T11:57:55;96894.37;;;13.12;56.37
16834;BME280;8533;48.426;10.868;2023-02-20T12:00:29;96889.58;;;13.26;56.53
16834;BME280;8533;48.426;10.868;2023-02-20T12:05:39;96889.86;;;13.49;55.35
16834;BME280;8533;48.426;10.868;2023-02-20T12:10:52;96883.05;;;13.50;54.65
16834;BME280;8533;48.426;10.868;2023-02-20T12:13:22;96872.04;;;13.75;53.82
16834;BME280;8533;48.426;10.868;2023-02-20T12:16:03;96862.72;;;13.89;53.59
16834;BME280;8533;48.426;10.868;2023-02-20T12:18:29;96858.33;;;13.97;53.65
16834;BME280;8533;48.426;10.868;2023-02-20T12:21:11;96864.77;;;14.11;53.58
16834;BME280;8533;48.426;10.868;2023-02-20T12:23:54;96861.23;;;14.55;53.14
16834;BME280;8533;48.426;10.868;2023-02-20T12:28:55;96852.42;;;14.76;51.82
16834;BME280;8533;48.426;10.868;2023-02-20T12:31:47;96850.66;;;14.86;51.23
16834;BME280;8533;48.426;10.868;2023-02-20T12:34:33;96848.67;;;15.06;51.27
16834;BME280;8533;48.426;10.868;2023-02-20T12:37:07;96844.77;;;15.19;50.06
16834;BME280;8533;48.426;10.868;2023-02-20T12:42:53;96838.91;;;15.56;49.64
16834;BME280;8533;48.426;10.868;2023-02-20T12:46:01;96832.87;;;15.69;48.87
16834;BME280;8533;48.426;10.868;2023-02-20T12:50:46;96843.15;;;15.68;49.39
16834;BME280;8533;48.426;10.868;2023-02-20T12:53:37;96842.39;;;15.77;49.71
16834;BME280;8533;48.426;10.868;2023-02-20T12:56:32;96835.81;;;15.85;47.89
16834;BME280;8533;48.426;10.868;2023-02-20T12:59:14;96837.36;;;15.71;47.51
16834;BME280;8533;48.426;10.868;2023-02-20T13:01:36;96832.33;;;15.61;47.44
16834;BME280;8533;48.426;10.868;2023-02-20T13:04:10;96834.97;;;15.67;47.35
16834;BME280;8533;48.426;10.868;2023-02-20T13:06:59;96834.71;;;15.73;47.77
16834;BME280;8533;48.426;10.868;2023-02-20T13:09:56;96833.38;;;15.60;48.33
16834;BME280;8533;48.426;10.868;2023-02-20T13:12:16;96822.97;;;15.36;47.66
16834;BME280;8533;48.426;10.868;2023-02-20T13:20:09;96813.42;;;15.25;48.62
16834;BME280;8533;48.426;10.868;2023-02-20T13:22:33;96804.61;;;15.54;48.08
16834;BME280;8533;48.426;10.868;2023-02-20T13:30:43;96798.74;;;15.39;48.63
16834;BME280;8533;48.426;10.868;2023-02-20T13:33:12;96795.13;;;15.65;48.72
16834;BME280;8533;48.426;10.868;2023-02-20T13:35:52;96790.39;;;15.62;48.30
16834;BME280;8533;48.426;10.868;2023-02-20T13:38:17;96788.20;;;15.39;49.04
16834;BME280;8533;48.426;10.868;2023-02-20T13:43:26;96789.06;;;15.60;48.37
16834;BME280;8533;48.426;10.868;2023-02-20T13:53:52;96781.86;;;15.38;48.92
16834;BME280;8533;48.426;10.868;2023-02-20T13:56:40;96773.72;;;15.52;49.31
16834;BME280;8533;48.426;10.868;2023-02-20T13:58:57;96763.23;;;15.62;49.95
16834;BME280;8533;48.426;10.868;2023-02-20T14:01:25;96756.38;;;15.69;49.02
16834;BME280;8533;48.426;10.868;2023-02-20T14:04:05;96752.19;;;15.88;48.86
16834;BME280;8533;48.426;10.868;2023-02-20T14:06:32;96749.27;;;15.99;48.92
16834;BME280;8533;48.426;10.868;2023-02-20T14:09:12;96748.48;;;16.07;48.98
16834;BME280;8533;48.426;10.868;2023-02-20T14:11:38;96737.40;;;15.92;48.89
16834;BME280;8533;48.426;10.868;2023-02-20T14:14:18;96737.92;;;15.71;48.93
16834;BME280;8533;48.426;10.868;2023-02-20T14:16:39;96729.98;;;15.53;48.47
16834;BME280;8533;48.426;10.868;2023-02-20T14:19:26;96732.11;;;15.61;48.54
16834;BME280;8533;48.426;10.868;2023-02-20T14:21:55;96721.56;;;15.61;48.23
16834;BME280;8533;48.426;10.868;2023-02-20T14:24:26;96719.45;;;15.76;49.30
16834;BME280;8533;48.426;10.868;2023-02-20T14:26:54;96712.80;;;15.46;49.71
16834;BME280;8533;48.426;10.868;2023-02-20T14:29:30;96708.09;;;15.58;49.65
16834;BME280;8533;48.426;10.868;2023-02-20T14:31:58;96704.94;;;15.53;49.05
16834;BME280;8533;48.426;10.868;2023-02-20T14:37:09;96698.02;;;15.37;49.47
16834;BME280;8533;48.426;10.868;2023-02-20T14:42:20;96697.77;;;15.51;48.83
16834;BME280;8533;48.426;10.868;2023-02-20T14:44:48;96701.19;;;15.49;49.08